createdAt,value
2022-10-20T00:01:53.166Z,99.90
2022-10-20T00:04:20.153Z,99.90
2022-10-20T00:06:47.020Z,99.90
2022-10-20T00:09:13.860Z,99.90
2022-10-20T00:11:40.811Z,99.90
2022-10-20T00:14:07.611Z,99.90
2022-10-20T00:16:35.777Z,99.90
2022-10-20T00:19:02.793Z,99.90
2022-10-20T00:21:29.799Z,99.90
2022-10-20T00:23:58.871Z,99.90
2022-10-20T00:26:26.502Z,99.90
2022-10-20T00:28:53.955Z,99.90
2022-10-20T00:31:21.451Z,99.90
2022-10-20T00:33:48.429Z,99.90
2022-10-20T00:36:16.983Z,99.90
2022-10-20T00:38:44.026Z,99.90
2022-10-20T00:41:14.479Z,99.90
2022-10-20T00:43:47.142Z,99.90
2022-10-20T00:46:15.241Z,99.90
2022-10-20T00:48:43.058Z,99.90
2022-10-20T00:51:12.611Z,99.90
2022-10-20T00:53:39.391Z,99.90
2022-10-20T00:56:06.311Z,99.90
2022-10-20T00:58:34.623Z,99.90
2022-10-20T01:01:01.486Z,99.90
2022-10-20T01:03:31.897Z,99.90
2022-10-20T01:05:58.675Z,99.90
2022-10-20T01:08:25.636Z,99.90
2022-10-20T01:11:11.249Z,99.90
2022-10-20T01:13:43.786Z,99.90
2022-10-20T01:16:10.505Z,99.90
2022-10-20T01:18:42.041Z,99.90
2022-10-20T01:21:08.778Z,99.90
2022-10-20T01:23:35.529Z,99.90
2022-10-20T01:26:08.458Z,99.90
2022-10-20T01:28:47.345Z,99.90
2022-10-20T01:31:23.050Z,99.90
2022-10-20T01:34:08.256Z,99.90
2022-10-20T01:36:42.702Z,99.90
2022-10-20T01:39:17.606Z,99.90
2022-10-20T01:41:53.315Z,99.90
2022-10-20T01:44:21.415Z,99.90
2022-10-20T01:46:48.278Z,99.90
2022-10-20T01:49:15.477Z,99.90
2022-10-20T01:54:19.938Z,99.90
2022-10-20T01:56:56.254Z,99.90
2022-10-20T01:59:41.423Z,99.90
2022-10-20T02:02:27.007Z,99.90
2022-10-20T02:05:12.557Z,99.90
2022-10-20T02:07:39.679Z,99.90
2022-10-20T02:10:12.228Z,99.90
2022-10-20T02:12:40.953Z,99.90
2022-10-20T02:15:09.472Z,99.90
2022-10-20T02:17:39.042Z,99.90
2022-10-20T02:20:06.687Z,99.90
2022-10-20T02:22:34.051Z,99.90
2022-10-20T02:25:01.402Z,99.90
2022-10-20T02:27:30.491Z,99.90
2022-10-20T02:29:59.304Z,99.90
2022-10-20T02:32:26.851Z,99.90
2022-10-20T02:34:53.648Z,99.90
2022-10-20T02:37:20.383Z,99.90
2022-10-20T02:39:47.218Z,99.90
2022-10-20T02:42:14.007Z,99.90
2022-10-20T02:44:40.809Z,99.90
2022-10-20T02:47:07.551Z,99.90
2022-10-20T02:49:34.393Z,99.90
2022-10-20T02:52:01.193Z,99.90
2022-10-20T02:54:28.814Z,99.90
2022-10-20T02:56:55.637Z,99.90
2022-10-20T02:59:22.441Z,99.90
2022-10-20T03:01:49.392Z,99.90
2022-10-20T03:04:16.314Z,99.90
2022-10-20T03:06:43.157Z,99.90
2022-10-20T03:09:10.056Z,99.90
2022-10-20T03:11:36.819Z,99.90
2022-10-20T03:14:03.698Z,99.90
2022-10-20T03:16:30.499Z,99.90
2022-10-20T03:19:00.290Z,99.90
2022-10-20T03:21:30.933Z,99.90
2022-10-20T03:23:57.742Z,99.90
2022-10-20T03:26:24.537Z,99.90
2022-10-20T03:28:51.313Z,99.90
2022-10-20T03:31:18.138Z,99.90
2022-10-20T03:33:44.883Z,99.90
2022-10-20T03:36:11.747Z,99.90
2022-10-20T03:38:40.943Z,99.90
2022-10-20T03:41:07.760Z,99.90
2022-10-20T03:43:34.671Z,99.90
2022-10-20T03:46:02.755Z,99.90
2022-10-20T03:48:29.996Z,99.90
2022-10-20T03:50:56.920Z,99.90
2022-10-20T03:53:23.794Z,99.90
2022-10-20T03:55:50.568Z,99.90
2022-10-20T03:58:17.361Z,99.90
2022-10-20T04:00:44.148Z,99.90
2022-10-20T04:03:10.923Z,99.90
2022-10-20T04:05:37.810Z,99.90
2022-10-20T04:08:04.781Z,99.90
2022-10-20T04:10:31.602Z,99.90
2022-10-20T04:12:59.037Z,99.90
2022-10-20T04:15:25.859Z,99.90
2022-10-20T04:17:52.908Z,99.90
2022-10-20T04:20:19.913Z,99.90
2022-10-20T04:22:46.681Z,99.90
2022-10-20T04:25:13.494Z,99.90
2022-10-20T04:27:40.465Z,99.90
2022-10-20T04:30:07.844Z,99.90
2022-10-20T04:32:34.699Z,99.90
2022-10-20T04:35:01.580Z,99.90
2022-10-20T04:37:28.515Z,99.90
2022-10-20T04:39:57.770Z,99.90
2022-10-20T04:42:24.590Z,99.90
2022-10-20T04:44:51.357Z,99.90
2022-10-20T04:47:18.244Z,99.90
2022-10-20T04:49:45.003Z,99.90
2022-10-20T04:52:11.748Z,99.90
2022-10-20T04:54:38.499Z,99.90
2022-10-20T04:57:06.326Z,99.90
2022-10-20T04:59:33.186Z,99.90
2022-10-20T05:01:59.998Z,99.90
2022-10-20T05:04:26.890Z,99.90
2022-10-20T05:06:53.628Z,99.90
2022-10-20T05:09:20.390Z,99.90
2022-10-20T05:11:47.192Z,99.90
2022-10-20T05:14:14.066Z,99.90
2022-10-20T05:16:40.797Z,99.90
2022-10-20T05:19:07.673Z,99.90
2022-10-20T05:21:34.813Z,99.90
2022-10-20T05:24:02.842Z,99.90
2022-10-20T05:26:34.434Z,99.90
2022-10-20T05:29:01.887Z,99.90
2022-10-20T05:31:28.720Z,99.90
2022-10-20T05:33:56.479Z,99.90
2022-10-20T05:36:24.747Z,99.90
2022-10-20T05:38:53.827Z,99.90
2022-10-20T05:41:21.688Z,99.90
2022-10-20T05:43:51.965Z,99.90
2022-10-20T05:46:19.411Z,99.90
2022-10-20T05:48:46.573Z,99.90
2022-10-20T05:51:18.624Z,99.90
2022-10-20T05:53:47.142Z,99.90
2022-10-20T05:56:15.698Z,99.90
2022-10-20T05:58:43.051Z,99.90
2022-10-20T06:01:18.830Z,99.90
2022-10-20T06:03:49.108Z,99.90
2022-10-20T06:06:15.970Z,19.70
2022-10-20T06:08:42.828Z,22.60
2022-10-20T06:11:10.994Z,22.60
2022-10-20T06:13:37.822Z,21.30
2022-10-20T06:19:26.802Z,4.90
2022-10-20T06:21:53.718Z,5.30
2022-10-20T06:24:20.613Z,3.40
2022-10-20T06:26:47.526Z,1.00
2022-10-20T06:29:15.736Z,1.00
2022-10-20T06:31:46.512Z,1.00
2022-10-20T06:34:17.748Z,1.00
2022-10-20T06:40:13.061Z,99.90
2022-10-20T06:42:39.838Z,99.90
2022-10-20T06:45:07.009Z,99.90
2022-10-20T06:47:33.840Z,99.90
2022-10-20T06:50:00.563Z,99.90
2022-10-20T06:52:27.407Z,99.90
2022-10-20T06:54:54.208Z,99.90
2022-10-20T06:57:21.007Z,99.90
2022-10-20T06:59:48.088Z,99.90
2022-10-20T07:02:15.121Z,99.90
2022-10-20T07:04:42.000Z,99.90
2022-10-20T07:07:08.762Z,99.90
2022-10-20T07:09:35.551Z,99.90
2022-10-20T07:12:02.416Z,99.90
2022-10-20T07:14:32.359Z,99.90
2022-10-20T07:16:59.354Z,99.90
2022-10-20T07:19:26.141Z,99.90
2022-10-20T07:21:52.892Z,99.90
2022-10-20T07:27:48.425Z,99.90
2022-10-20T07:30:15.778Z,99.90
2022-10-20T07:32:42.648Z,99.90
2022-10-20T07:35:09.754Z,99.90
2022-10-20T07:37:36.865Z,99.90
2022-10-20T07:40:03.963Z,99.90
2022-10-20T07:42:30.755Z,99.90
2022-10-20T07:44:57.508Z,99.90
2022-10-20T07:47:24.300Z,99.90
2022-10-20T07:49:51.173Z,99.90
2022-10-20T07:52:18.504Z,99.90
2022-10-20T07:54:45.556Z,99.90
2022-10-20T07:57:12.307Z,99.90
2022-10-20T07:59:39.143Z,99.90
2022-10-20T08:02:06.063Z,99.90
2022-10-20T08:04:33.064Z,99.90
2022-10-20T08:07:00.334Z,99.90
2022-10-20T08:09:27.112Z,99.90
2022-10-20T08:11:55.661Z,99.90
2022-10-20T08:14:23.241Z,99.90
2022-10-20T08:16:52.826Z,99.90
2022-10-20T08:19:26.965Z,99.90
2022-10-20T08:21:53.725Z,99.90
2022-10-20T08:24:20.489Z,99.90
2022-10-20T08:26:47.244Z,99.90
2022-10-20T08:29:14.772Z,99.90
2022-10-20T08:31:43.561Z,99.90
2022-10-20T08:34:10.432Z,99.90
2022-10-20T08:36:37.478Z,99.90
2022-10-20T08:39:06.156Z,99.90
2022-10-20T08:41:55.392Z,99.90
2022-10-20T08:44:25.130Z,99.90
2022-10-20T08:46:52.403Z,99.90
2022-10-20T08:49:23.504Z,99.90
2022-10-20T08:51:50.551Z,99.90
2022-10-20T08:54:17.577Z,99.90
2022-10-20T08:56:45.059Z,99.90
2022-10-20T08:59:27.051Z,99.90
2022-10-20T09:01:54.579Z,99.90
2022-10-20T09:04:21.344Z,99.90
2022-10-20T09:06:51.194Z,99.90
2022-10-20T09:09:19.057Z,99.90
2022-10-20T09:11:46.222Z,99.90
2022-10-20T09:14:13.247Z,99.90
2022-10-20T09:16:55.375Z,99.90
2022-10-20T09:19:27.244Z,99.90
2022-10-20T09:21:56.154Z,99.90
2022-10-20T09:24:24.428Z,99.90
2022-10-20T09:26:59.264Z,99.90
2022-10-20T09:29:36.794Z,99.90
2022-10-20T09:32:22.450Z,99.90
2022-10-20T09:34:50.438Z,99.90
2022-10-20T09:37:19.104Z,99.90
2022-10-20T09:39:45.852Z,99.90
2022-10-20T09:42:15.115Z,99.90
2022-10-20T09:44:48.345Z,99.90
2022-10-20T09:47:15.907Z,99.90
2022-10-20T09:52:35.058Z,99.90
2022-10-20T09:55:09.115Z,99.90
2022-10-20T09:57:36.666Z,99.90
2022-10-20T10:00:19.139Z,99.90
2022-10-20T10:03:14.726Z,99.90
2022-10-20T10:05:41.664Z,99.90
2022-10-20T10:08:15.152Z,99.90
2022-10-20T10:10:45.292Z,99.90
2022-10-20T10:13:27.085Z,99.90
2022-10-20T10:16:09.242Z,96.60
2022-10-20T10:18:37.783Z,99.90
2022-10-20T10:21:22.780Z,95.60
2022-10-20T10:23:57.759Z,96.10
2022-10-20T10:26:33.556Z,98.10
2022-10-20T10:29:00.708Z,96.70
2022-10-20T10:31:27.742Z,99.90
2022-10-20T10:34:13.000Z,99.90
2022-10-20T10:36:40.156Z,99.90
2022-10-20T10:39:13.480Z,99.90
2022-10-20T10:42:29.770Z,96.30
2022-10-20T10:45:46.612Z,91.30
2022-10-20T10:48:54.320Z,92.70
2022-10-20T10:51:34.832Z,96.20
2022-10-20T10:54:07.998Z,90.70
2022-10-20T10:57:16.309Z,91.90
2022-10-20T10:59:44.803Z,92.70
2022-10-20T11:02:59.131Z,93.50
2022-10-20T11:05:38.121Z,91.80
2022-10-20T11:08:20.184Z,91.60
2022-10-20T11:11:14.275Z,87.10
2022-10-20T11:13:59.874Z,90.10
2022-10-20T11:17:14.771Z,94.30
2022-10-20T11:20:12.322Z,91.70
2022-10-20T11:23:17.184Z,98.40
2022-10-20T11:25:52.208Z,99.90
2022-10-20T11:28:44.308Z,99.90
2022-10-20T11:31:28.310Z,99.90
2022-10-20T11:34:03.945Z,99.90
2022-10-20T11:36:45.318Z,96.50
2022-10-20T11:39:26.243Z,99.00
2022-10-20T11:41:59.702Z,99.90
2022-10-20T11:44:36.829Z,95.60
2022-10-20T11:47:08.018Z,93.80
2022-10-20T11:49:35.196Z,93.00
2022-10-20T11:52:14.048Z,95.80
2022-10-20T11:54:59.541Z,95.60
2022-10-20T11:57:59.061Z,96.00
2022-10-20T12:00:49.825Z,91.30
2022-10-20T12:03:25.813Z,94.80
2022-10-20T12:06:21.859Z,96.40
2022-10-20T12:09:01.902Z,98.30
2022-10-20T12:11:47.568Z,30.00
2022-10-20T12:14:14.425Z,99.90
2022-10-20T12:16:55.771Z,99.90
2022-10-20T12:19:30.170Z,99.90
2022-10-20T12:21:56.921Z,63.20
2022-10-20T12:24:39.695Z,99.90
2022-10-20T12:27:09.623Z,1.00
2022-10-20T12:29:36.521Z,1.00
2022-10-20T12:32:21.909Z,1.00
2022-10-20T12:35:00.399Z,99.90
2022-10-20T12:37:31.252Z,99.90
2022-10-20T12:40:18.078Z,99.90
2022-10-20T12:42:50.796Z,99.90
2022-10-20T12:45:20.739Z,99.90
2022-10-20T12:47:51.124Z,6.20
2022-10-20T12:50:46.997Z,75.60
2022-10-20T12:53:26.905Z,99.90
2022-10-20T12:56:01.825Z,99.90
2022-10-20T12:58:31.752Z,99.90
2022-10-20T13:00:58.694Z,99.90
2022-10-20T13:03:31.795Z,99.90
2022-10-20T13:05:59.975Z,99.90
2022-10-20T13:08:35.711Z,99.90
2022-10-20T13:11:38.315Z,99.90
2022-10-20T13:14:17.521Z,99.90
2022-10-20T13:16:50.595Z,99.90
2022-10-20T13:19:23.963Z,99.90
2022-10-20T13:21:51.958Z,1.00
2022-10-20T13:24:32.588Z,99.90
2022-10-20T13:27:04.291Z,99.90
2022-10-20T13:29:40.115Z,99.90
2022-10-20T13:32:25.456Z,99.90
2022-10-20T13:34:54.048Z,99.90
2022-10-20T13:38:18.194Z,1.00
2022-10-20T13:40:45.163Z,1.00
2022-10-20T13:43:46.845Z,1.00
2022-10-20T13:46:25.469Z,99.90
2022-10-20T13:49:15.521Z,99.90
2022-10-20T13:51:47.995Z,1.00
2022-10-20T13:54:37.296Z,99.90
2022-10-20T13:57:04.817Z,79.90
2022-10-20T13:59:32.204Z,99.90
2022-10-20T14:02:26.987Z,99.90
2022-10-20T14:05:10.990Z,99.90
2022-10-20T14:07:42.480Z,99.90
2022-10-20T14:10:24.493Z,99.90
2022-10-20T14:12:52.826Z,99.90
2022-10-20T14:15:33.173Z,1.00
2022-10-20T14:18:04.205Z,55.70
2022-10-20T14:20:33.523Z,99.90
2022-10-20T14:23:03.201Z,99.90
2022-10-20T14:25:31.682Z,99.90
2022-10-20T14:28:00.346Z,99.90
2022-10-20T14:30:28.770Z,99.90
2022-10-20T14:32:55.867Z,99.90
2022-10-20T14:35:25.341Z,99.90
2022-10-20T14:37:58.418Z,99.90
2022-10-20T14:40:31.945Z,1.00
2022-10-20T14:43:02.262Z,1.00
2022-10-20T14:45:29.763Z,1.00
2022-10-20T14:47:59.635Z,1.00
2022-10-20T14:50:31.473Z,1.00
2022-10-20T14:53:15.500Z,1.00
2022-10-20T14:55:42.385Z,1.00
2022-10-20T14:58:28.096Z,2.20
2022-10-20T15:01:15.212Z,1.00
2022-10-20T15:03:42.268Z,11.90
2022-10-20T15:06:16.741Z,12.20
2022-10-20T15:08:53.991Z,9.50
2022-10-20T15:11:23.715Z,20.60
2022-10-20T15:13:53.023Z,8.40
2022-10-20T15:16:45.327Z,34.50
2022-10-20T15:19:13.153Z,34.10
2022-10-20T15:21:40.025Z,43.30
2022-10-20T15:24:07.424Z,53.80
2022-10-20T15:26:34.399Z,47.40
2022-10-20T15:29:01.269Z,56.50
2022-10-20T15:31:30.331Z,60.30
2022-10-20T15:33:58.302Z,68.10
2022-10-20T15:36:30.080Z,75.90
2022-10-20T15:38:57.730Z,82.70
2022-10-20T15:41:30.616Z,90.50
2022-10-20T15:44:13.328Z,91.20
2022-10-20T15:46:41.526Z,95.20
2022-10-20T15:49:09.303Z,97.10
2022-10-20T15:51:38.358Z,95.60
2022-10-20T15:54:05.276Z,92.90
2022-10-20T15:56:33.062Z,98.30
2022-10-20T15:59:00.028Z,97.20
2022-10-20T16:01:28.208Z,97.90
2022-10-20T16:03:55.891Z,99.90
2022-10-20T16:06:22.930Z,99.90
2022-10-20T16:08:51.583Z,99.90
2022-10-20T16:11:20.774Z,99.90
2022-10-20T16:13:48.804Z,99.90
2022-10-20T16:16:18.881Z,99.90
2022-10-20T16:18:46.228Z,99.90
2022-10-20T16:21:13.349Z,99.90
2022-10-20T16:23:42.217Z,99.90
2022-10-20T16:26:13.204Z,99.90
2022-10-20T16:28:40.914Z,99.90
2022-10-20T16:31:14.267Z,99.90
2022-10-20T16:33:41.738Z,99.90
2022-10-20T16:36:11.111Z,99.90
2022-10-20T16:38:40.208Z,99.90
2022-10-20T16:41:14.765Z,99.90
2022-10-20T16:43:44.186Z,99.90
2022-10-20T16:46:12.619Z,99.90
2022-10-20T16:48:41.557Z,99.90
2022-10-20T16:51:13.180Z,99.90
2022-10-20T16:53:40.084Z,99.90
2022-10-20T16:56:07.987Z,99.90
2022-10-20T16:58:35.559Z,99.90
2022-10-20T17:01:08.821Z,99.90
2022-10-20T17:06:17.260Z,99.90
2022-10-20T17:08:44.803Z,99.90
2022-10-20T17:11:14.762Z,99.90
2022-10-20T17:13:42.206Z,99.90
2022-10-20T17:16:12.686Z,99.90
2022-10-20T17:18:39.657Z,99.90
2022-10-20T17:21:07.459Z,99.90
2022-10-20T17:23:38.708Z,99.90
2022-10-20T17:26:11.189Z,99.90
2022-10-20T17:28:38.435Z,99.90
2022-10-20T17:31:09.827Z,99.90
2022-10-20T17:33:38.048Z,99.90
2022-10-20T17:36:06.530Z,99.90
2022-10-20T17:38:33.847Z,99.90
2022-10-20T17:41:09.133Z,99.90
2022-10-20T17:43:36.565Z,99.90
2022-10-20T17:46:09.582Z,99.90
2022-10-20T17:48:36.996Z,99.90
2022-10-20T17:51:05.354Z,99.90
2022-10-20T17:53:37.874Z,99.90
2022-10-20T17:56:16.874Z,99.90
2022-10-20T17:58:45.526Z,99.90
2022-10-20T18:01:19.614Z,99.90
2022-10-20T18:03:48.359Z,99.90
2022-10-20T18:06:20.861Z,99.90
2022-10-20T18:08:48.529Z,99.90
2022-10-20T18:11:20.812Z,99.90
2022-10-20T18:13:47.884Z,99.90
2022-10-20T18:16:17.987Z,99.90
2022-10-20T18:18:45.631Z,99.90
2022-10-20T18:21:14.632Z,99.90
2022-10-20T18:23:43.976Z,99.90
2022-10-20T18:26:13.640Z,99.90
2022-10-20T18:28:47.420Z,99.90
2022-10-20T18:31:23.996Z,99.90
2022-10-20T18:33:57.067Z,99.90
2022-10-20T18:36:25.367Z,99.90
2022-10-20T18:38:53.587Z,99.90
2022-10-20T18:41:29.216Z,99.90
2022-10-20T18:44:01.408Z,99.90
2022-10-20T18:46:30.254Z,99.90
2022-10-20T18:49:00.255Z,99.90
2022-10-20T18:51:27.789Z,99.90
2022-10-20T18:53:57.051Z,99.90
2022-10-20T18:56:26.600Z,99.90
2022-10-20T18:58:58.790Z,99.90
2022-10-20T19:01:32.116Z,99.90
2022-10-20T19:04:00.362Z,99.90
2022-10-20T19:06:39.708Z,99.90
2022-10-20T19:09:12.848Z,99.90
2022-10-20T19:11:40.660Z,99.90
2022-10-20T19:14:11.657Z,99.90
2022-10-20T19:16:39.955Z,99.90
2022-10-20T19:19:09.176Z,99.90
2022-10-20T19:21:36.763Z,99.90
2022-10-20T19:24:09.505Z,99.90
2022-10-20T19:26:42.357Z,99.90
2022-10-20T19:29:14.717Z,99.90
2022-10-20T19:31:51.038Z,99.90
2022-10-20T19:34:21.803Z,99.90
2022-10-20T19:36:49.480Z,99.90
2022-10-20T19:39:19.898Z,99.90
2022-10-20T19:41:47.466Z,99.90
2022-10-20T19:44:17.514Z,99.90
2022-10-20T19:46:47.063Z,99.90
2022-10-20T19:49:15.097Z,99.90
2022-10-20T19:51:42.073Z,99.90
2022-10-20T19:54:09.449Z,99.90
2022-10-20T19:56:36.848Z,99.90
2022-10-20T19:59:05.510Z,99.90
2022-10-20T20:01:33.037Z,99.90
2022-10-20T20:04:00.616Z,99.90
2022-10-20T20:06:28.877Z,99.90
2022-10-20T20:09:01.179Z,99.90
2022-10-20T20:11:31.052Z,99.90
2022-10-20T20:14:01.197Z,99.90
2022-10-20T20:16:29.184Z,99.90
2022-10-20T20:18:56.184Z,99.90
2022-10-20T20:21:24.087Z,99.90
2022-10-20T20:24:00.463Z,99.90
2022-10-20T20:26:29.525Z,99.90
2022-10-20T20:28:57.207Z,99.90
2022-10-20T20:31:43.454Z,99.90
2022-10-20T20:34:10.496Z,99.90
2022-10-20T20:36:39.512Z,99.90
2022-10-20T20:39:07.458Z,99.90
2022-10-20T20:41:34.524Z,99.90
2022-10-20T20:44:06.880Z,99.90
2022-10-20T20:46:36.378Z,99.90
2022-10-20T20:49:03.712Z,99.90
2022-10-20T20:51:33.576Z,99.90
2022-10-20T20:54:01.449Z,99.90
2022-10-20T20:56:28.365Z,99.90
2022-10-20T20:58:55.752Z,99.90
2022-10-20T21:01:25.289Z,99.90
2022-10-20T21:03:57.109Z,99.90
2022-10-20T21:06:33.192Z,99.90
2022-10-20T21:09:00.492Z,99.90
2022-10-20T21:11:28.023Z,99.90
2022-10-20T21:13:57.584Z,99.90
2022-10-20T21:16:30.670Z,99.90
2022-10-20T21:19:00.002Z,99.90
2022-10-20T21:21:32.252Z,99.90
2022-10-20T21:24:00.307Z,99.90
2022-10-20T21:26:28.288Z,99.90
2022-10-20T21:28:55.422Z,99.90
2022-10-20T21:31:25.252Z,99.90
2022-10-20T21:34:18.420Z,99.90
2022-10-20T21:36:45.331Z,99.90
2022-10-20T21:39:16.025Z,99.90
2022-10-20T21:41:44.952Z,99.90
2022-10-20T21:44:13.918Z,99.90
2022-10-20T21:46:44.159Z,99.90
2022-10-20T21:49:20.229Z,99.90
2022-10-20T21:51:49.973Z,99.90
2022-10-20T21:56:52.298Z,99.90
2022-10-20T21:59:24.991Z,99.90
2022-10-20T22:01:54.160Z,99.90
2022-10-20T22:04:23.506Z,99.90
2022-10-20T22:06:50.552Z,99.90
2022-10-20T22:09:18.192Z,99.90
2022-10-20T22:11:55.229Z,99.90
2022-10-20T22:14:22.974Z,99.90
2022-10-20T22:16:50.164Z,99.90
2022-10-20T22:19:20.017Z,99.90
2022-10-20T22:21:48.703Z,99.90
2022-10-20T22:24:16.273Z,99.90
2022-10-20T22:26:43.307Z,99.90
2022-10-20T22:29:11.050Z,99.90
2022-10-20T22:35:26.170Z,99.90
2022-10-20T22:37:53.453Z,99.90
2022-10-20T22:44:01.339Z,99.90
2022-10-20T22:46:29.378Z,99.90
2022-10-20T22:51:29.224Z,99.90
2022-10-20T22:53:56.111Z,99.90
2022-10-20T22:56:23.719Z,99.90
2022-10-20T22:58:53.130Z,99.90
2022-10-20T23:01:21.849Z,99.90
2022-10-20T23:03:48.915Z,99.90
2022-10-20T23:06:18.571Z,99.90
2022-10-20T23:08:47.735Z,99.90
2022-10-20T23:11:15.635Z,99.90
2022-10-20T23:13:42.674Z,99.90
2022-10-20T23:16:10.278Z,99.90
2022-10-20T23:18:37.643Z,99.90
2022-10-20T23:21:05.321Z,99.90
2022-10-20T23:23:34.517Z,99.90
2022-10-20T23:26:03.845Z,99.90
2022-10-20T23:28:32.092Z,99.90
2022-10-20T23:31:25.447Z,99.90
2022-10-20T23:33:55.853Z,99.90
2022-10-20T23:36:23.106Z,99.90
2022-10-20T23:38:50.155Z,99.90
2022-10-20T23:41:17.133Z,99.90
2022-10-20T23:43:43.999Z,99.90
2022-10-20T23:46:12.361Z,99.90
2022-10-20T23:48:39.947Z,99.90
2022-10-20T23:51:07.987Z,99.90
2022-10-20T23:53:35.299Z,99.90
2022-10-20T23:56:02.323Z,99.90
2022-10-20T23:58:29.227Z,99.90
